• Join FlightAware (Why Join?)
  • Login
  • US Flag 
12:12AM EDT


 

Airport Tracker/Info


-or-


 

Live Flight TrackerFlight Track Log ✈ UAL118 ✈ 21-Apr-2013 ✈ EDDF / FRA - KEWR

Flight Track Log - Related Links

Times and Time Zones

All times are in EDT time to prevent confusion due to time zone crossing. See the UAL118 flight status page for this flight to view local times or setup timezone preferences in your user account.

Time Position Orientation Groundspeed Altitude Reporting Facility
EDT Latitude Longitude Course Direction KTS MPH feet Rate Location/Type
03:03AM 49.9600 8.5250 177° South 184 212 2,700  Level FlightAware
03:04AM 49.9500 8.5260 176° South 185 213 3,100 1,500 Climbing FlightAware
03:04AM 49.9230 8.5270 179° South 217 250 3,700 1,380 Climbing FlightAware
03:05AM 49.8900 8.5300 177° South 245 282 4,500 2,040 Climbing FlightAware
03:05AM 49.8620 8.5270 184° South 251 289 5,600 2,280 Climbing FlightAware
03:06AM 49.8270 8.5050 202° Southwest 273 314 6,600 1,500 Climbing FlightAware
03:06AM 49.8000 8.4910 199° South 293 337 7,000 900 Climbing FlightAware
03:06AM 49.7740 8.4740 203° Southwest 323 372 7,200 2,340 Climbing FlightAware
03:08AM 49.7480 8.2930 258° West 349 402 10,900 2,580 Climbing FlightAware
03:08AM 49.7470 8.1880 269° West 357 411 12,600 2,460 Climbing FlightAware
03:09AM 49.7420 8.0710 266° West 363 418 14,400 2,220 Climbing FlightAware
03:10AM 49.7370 7.9680 266° West 372 428 15,800 2,280 Climbing FlightAware
03:10AM 49.7300 7.8470 265° West 375 432 17,700 2,220 Climbing FlightAware
03:11AM 49.7240 7.7390 265° West 381 438 19,000 1,860 Climbing FlightAware
03:12AM 49.7200 7.6300 267° West 389 448 20,200 1,800 Climbing FlightAware
03:13AM 49.7150 7.5050 267° West 397 457 21,600 1,680 Climbing FlightAware
03:13AM 49.7100 7.3890 266° West 406 467 22,600 1,500 Climbing FlightAware
03:14AM 49.7050 7.2750 266° West 413 475 23,600 1,440 Climbing FlightAware
03:15AM 49.6990 7.1440 266° West 422 486 24,700 1,440 Climbing FlightAware
03:15AM 49.6930 7.0180 266° West 431 496 25,700 1,380 Climbing FlightAware
03:16AM 49.6880 6.8980 266° West 436 502 26,600 1,380 Climbing FlightAware
03:17AM 49.6810 6.7540 266° West 440 506 27,700 1,320 Climbing FlightAware
03:17AM 49.6750 6.6280 266° West 446 513 28,500 1,260 Climbing FlightAware
03:18AM 49.6680 6.4870 266° West 449 517 29,500 1,200 Climbing FlightAware
03:19AM 49.6610 6.3600 265° West 455 524 30,200 1,080 Climbing FlightAware
03:19AM 49.6540 6.2310 265° West 458 527 31,000 1,320 Climbing FlightAware
03:20AM 49.6460 6.0830 265° West 454 522 32,100 1,380 Climbing FlightAware
03:21AM 49.6390 5.9560 265° West 449 517 33,000 660 Climbing FlightAware
03:22AM 49.6320 5.8310 265° West 453 521 33,000  Level FlightAware
03:22AM 49.6230 5.6800 265° West 454 522 33,000  Level FlightAware
03:23AM 49.6110 5.5510 262° West 448 516 33,000  Level FlightAware
03:24AM 49.5960 5.4190 260° West 447 514 33,000  Level FlightAware
03:24AM 49.5770 5.2780 258° West 443 510 33,000  Level FlightAware
03:25AM 49.5600 5.1520 258° West 444 511 33,000  Level FlightAware
03:26AM 49.5400 5.0040 258° West 445 512 33,000  Level FlightAware
03:27AM 49.5250 4.8860 259° West 448 516 33,000  Level FlightAware
03:27AM 49.5070 4.7570 258° West 449 517 33,000  Level FlightAware
03:28AM 49.4890 4.6200 259° West 449 517 33,000  Level FlightAware
03:29AM 49.4710 4.4900 258° West 450 518 33,000  Level FlightAware
03:29AM 49.4520 4.3470 259° West 450 518 33,000 -1,200 Level FlightAware
03:30AM 49.4290 4.2466 259° West 1 1 31,500  Descending FlightAware UK
03:30AM 49.4350 4.2270 259° West 452 520 33,000  Climbing FlightAware
03:30AM 49.4173 4.1574 259° West 1 1 31,500 -2,340 Descending FlightAware UK
03:31AM 49.4092 4.1010 258° West 1 1 31,500 4,680 Level FlightAware UK
03:31AM 49.4170 4.0970 258° West 446 513 33,000  Climbing FlightAware
03:31AM 49.3970 4.0113 258° West 1 1 31,500  Descending FlightAware UK
03:31AM 49.3980 3.9660 258° West 440 506 33,000 1,560 Climbing FlightAware
03:32AM 49.3810 3.8470 258° West 436 502 33,000  Level FlightAware
03:33AM 49.3630 3.7200 258° West 437 503 33,000 -1,440 Level FlightAware
03:33AM 49.3456 3.6519 258° West 1 1 31,500  Descending FlightAware UK
03:33AM 49.3460 3.6010 257° West 438 504 33,000  Climbing FlightAware
03:33AM 49.3376 3.5975 257° West 1 1 31,500 -4,500 Descending FlightAware UK
03:34AM 49.3304 3.5462 257° West 1 1 31,500  Level FlightAware UK
03:34AM 49.3228 3.4935 258° West 1 1 31,500 3,600 Level FlightAware UK
03:34AM 49.3260 3.4650 258° West 439 505 33,000  Climbing FlightAware
03:35AM 49.3037 3.3656 258° West 1 1 31,500  Descending FlightAware UK
03:35AM 49.3070 3.3400 258° West 440 506 33,000 1,800 Climbing FlightAware
03:36AM 49.2870 3.2060 257° West 442 509 33,000 -1,500 Level FlightAware
03:36AM 49.2670 3.1345 257° West 1 1 31,500 -2,700 Descending FlightAware UK
03:36AM 49.2627 3.0999 259° West 1 1 31,500 3,060 Level FlightAware UK
03:36AM 49.2680 3.0770 259° West 444 511 33,000  Climbing FlightAware
03:37AM 49.2490 3.0078 259° West 1 1 31,500 -2,460 Descending FlightAware UK
03:37AM 49.2455 2.9589 264° West 1 1 31,500 4,260 Level FlightAware UK
03:37AM 49.2540 2.9480 264° West 446 513 33,000  Climbing FlightAware
03:37AM 49.2436 2.8824 264° West 1 1 31,500  Descending FlightAware UK
03:38AM 49.2500 2.8180 264° West 448 516 33,000  Climbing FlightAware
03:38AM 49.2425 2.7716 264° West 1 1 31,500 -2,580 Descending FlightAware UK
03:38AM 49.2408 2.7133 267° West 1 1 31,500 3,180 Level FlightAware UK
03:38AM 49.2460 2.6740 267° West 449 517 33,000  Climbing FlightAware
03:39AM 49.2382 2.6177 267° West 1 1 31,500 -2,460 Descending FlightAware UK
03:39AM 49.2367 2.5604 268° West 1 1 31,500 4,500 Level FlightAware UK
03:39AM 49.2430 2.5500 268° West 449 517 33,000  Climbing FlightAware
03:39AM 49.2348 2.4847 268° West 1 1 31,500 -2,340 Descending FlightAware UK
03:40AM 49.2335 2.4284 268° West 1 1 31,500 4,680 Level FlightAware UK
03:40AM 49.2400 2.4200 268° West 448 516 33,000  Climbing FlightAware
03:40AM 49.2317 2.3527 268° West 456 525 31,500 -2,220 Descending FlightAware UK
03:40AM 49.2305 2.2960 268° West 456 525 31,500 4,080 Level FlightAware UK
03:41AM 49.2370 2.2790 268° West 447 514 33,000  Climbing FlightAware
03:41AM 49.2286 2.2210 268° West 454 522 31,500  Descending FlightAware UK
03:41AM 49.2340 2.1570 268° West 445 512 33,000  Climbing FlightAware
03:42AM 49.2249 2.0882 268° West 448 516 31,500 -2,280 Descending FlightAware UK
03:42AM 49.2234 2.0325 268° West 446 513 31,500 3,900 Level FlightAware UK
03:42AM 49.2300 2.0160 268° West 445 512 33,000  Climbing FlightAware
03:42AM 49.2213 1.9573 268° West 446 513 31,500 -2,460 Descending FlightAware UK
03:43AM 49.2196 1.9017 267° West 450 518 31,500 4,260 Level FlightAware UK
03:43AM 49.2260 1.8880 267° West 444 511 33,000  Climbing FlightAware
03:43AM 49.2167 1.8071 267° West 448 516 31,500  Descending FlightAware UK
03:43AM 49.2210 1.7490 267° West 444 511 33,000  Climbing FlightAware
03:44AM 49.2131 1.6956 267° West 448 516 31,500 -2,520 Descending FlightAware UK
03:44AM 49.2111 1.6385 267° West 450 518 31,500 4,080 Level FlightAware UK
03:44AM 49.2170 1.6190 267° West 444 511 33,000  Climbing FlightAware
03:44AM 49.2085 1.5642 267° West 450 518 31,500 -2,400 Descending FlightAware UK
03:45AM 49.2067 1.5080 267° West 454 522 31,500 4,500 Level FlightAware UK
03:45AM 49.2130 1.5010 267° West 443 510 33,000  Climbing FlightAware
03:45AM 49.2027 1.3958 267° West 454 522 31,500  Descending FlightAware UK
03:45AM 49.2080 1.3590 267° West 441 507 33,000  Climbing FlightAware
03:46AM 49.1995 1.3031 267° West 456 525 31,500  Descending FlightAware UK
03:46AM 49.2040 1.2490 267° West 440 506 33,000  Climbing FlightAware
03:46AM 49.1975 1.2465 267° West 454 522 31,500 -4,500 Descending FlightAware UK
03:46AM 49.1955 1.1908 267° West 454 522 31,500  Level FlightAware UK
03:47AM 49.1929 1.1351 266° West 450 518 31,500  Level FlightAware UK
03:47AM 49.1904 1.0803 266° West 450 518 31,500  Level FlightAware UK
03:47AM 49.1875 1.0065 267° West 448 516 31,500  Level FlightAware UK
03:48AM 49.1854 0.9511 267° West 448 516 31,500  Level FlightAware UK
03:48AM 49.1812 0.8407 267° West 448 516 31,500  Level FlightAware UK
03:49AM 49.1790 0.7854 267° West 448 516 31,500  Level FlightAware UK
03:49AM 49.1754 0.6942 267° West 446 513 31,500  Level FlightAware UK
03:49AM 49.1730 0.6386 266° West 446 513 31,500  Level FlightAware UK
03:50AM 49.1706 0.5844 266° West 448 516 31,500  Level FlightAware UK
03:50AM 49.1667 0.4930 266° West 446 513 31,500  Level FlightAware UK
03:51AM 49.1627 0.4023 266° West 446 513 31,500  Level FlightAware UK
03:51AM 49.1595 0.3288 266° West 444 511 31,500  Level FlightAware UK
03:51AM 49.1568 0.2566 267° West 444 511 31,500  Level FlightAware UK
03:52AM 49.1632 0.2030 280° West 444 511 31,500  Level FlightAware UK
03:52AM 49.1679 0.1486 278° West 444 511 31,500  Level FlightAware UK
03:53AM 49.1768 0.0414 277° West 444 511 31,500  Level FlightAware UK
03:53AM 49.1802 -0.0121 275° West 446 513 31,500  Level FlightAware UK
03:53AM 49.1834 -0.0669 275° West 446 513 31,500  Level FlightAware UK
03:54AM 49.1863 -0.1213 275° West 446 513 31,500  Level FlightAware UK
03:54AM 49.1909 -0.2112 274° West 446 513 31,500  Level FlightAware UK
03:54AM 49.1948 -0.2834 275° West 444 511 31,500  Level FlightAware UK
03:55AM 49.1985 -0.3375 276° West 444 511 31,500  Level FlightAware UK
03:55AM 49.2027 -0.3922 277° West 446 513 31,500  Level FlightAware UK
03:55AM 49.2068 -0.4456 277° West 444 511 31,500  Level FlightAware UK
03:56AM 49.2109 -0.4997 277° West 446 513 31,500 2,460 Level FlightAware UK
03:56AM 49.2180 -0.5420 277° West 426 490 33,000  Climbing FlightAware
03:56AM 49.2187 -0.6080 277° West 446 513 31,500 -2,580 Descending FlightAware UK
03:57AM 49.2224 -0.6616 276° West 444 511 31,500 4,080 Level FlightAware UK
03:57AM 49.2260 -0.6600 276° West 426 490 33,000  Climbing FlightAware
03:57AM 49.2274 -0.7331 276° West 446 513 31,500 -2,100 Descending FlightAware UK
03:57AM 49.2325 -0.8059 276° West 448 516 31,500 3,420 Level FlightAware UK
03:57AM 49.2360 -0.7980 276° West 427 491 33,000  Climbing FlightAware
03:58AM 49.2386 -0.8962 276° West 448 516 31,500  Descending FlightAware UK
03:58AM 49.2430 -0.9120 276° West 426 490 33,000  Climbing FlightAware
03:58AM 49.2447 -0.9865 276° West 448 516 31,500  Descending FlightAware UK
03:59AM 49.2510 -1.0320 276° West 426 490 33,000  Climbing FlightAware
03:59AM 49.2494 -1.0581 276° West 448 516 31,500 -4,500 Descending FlightAware UK
03:59AM 49.2530 -1.1122 276° West 448 516 31,500 2,040 Level FlightAware UK
03:59AM 49.2600 -1.1720 276° West 426 490 33,000  Climbing FlightAware
04:00AM 49.2612 -1.2378 276° West 444 511 31,500 -2,580 Descending FlightAware UK
04:00AM 49.2647 -1.2919 276° West 444 511 31,500 3,900 Level FlightAware UK
04:00AM 49.2680 -1.2940 276° West 426 490 33,000  Climbing FlightAware
04:00AM 49.2695 -1.3634 276° West 444 511 31,500 -2,460 Descending FlightAware UK
04:01AM 49.2730 -1.4175 276° West 444 511 31,500 3,420 Level FlightAware UK
04:01AM 49.2760 -1.4210 276° West 426 490 33,000  Climbing FlightAware
04:01AM 49.2787 -1.5079 276° West 442 509 31,500 -2,280 Descending FlightAware UK
04:02AM 49.2821 -1.5621 275° West 446 513 31,500 4,980 Level FlightAware UK
04:02AM 49.2830 -1.5430 275° West 426 490 33,000  Climbing FlightAware
04:02AM 49.2857 -1.6164 275° West 446 513 31,500 -2,520 Descending FlightAware UK
04:02AM 49.2890 -1.6708 275° West 446 513 31,500 4,080 Level FlightAware UK
04:02AM 49.2910 -1.6630 275° West 427 491 33,000  Climbing FlightAware
04:03AM 49.2956 -1.7787 275° West 450 518 31,500  Descending FlightAware UK
04:03AM 49.2990 -1.8050 275° West 426 490 33,000  Climbing FlightAware
04:03AM 49.3019 -1.8871 275° West 452 520 31,500  Descending FlightAware UK
04:04AM 49.3060 -1.9210 275° West 426 490 33,000  Climbing FlightAware
04:04AM 49.3093 -2.0139 275° West 450 518 31,500 -2,100 Descending FlightAware UK
04:04AM 49.3124 -2.0683 275° West 448 516 31,500 4,500 Level FlightAware UK
04:04AM 49.3130 -2.0570 275° West 425 489 33,000  Climbing FlightAware
04:05AM 49.3155 -2.1215 275° West 448 516 31,500 -2,760 Descending FlightAware UK
04:05AM 49.3184 -2.1758 275° West 450 518 31,500 3,600 Level FlightAware UK
04:05AM 49.3200 -2.1790 275° West 425 489 33,000  Climbing FlightAware
04:05AM 49.3226 -2.2479 275° West 450 518 31,500  Descending FlightAware UK
04:06AM 49.3270 -2.2970 275° West 425 489 33,000  Climbing FlightAware
04:06AM 49.3326 -2.4275 275° West 452 520 31,500  Descending FlightAware UK
04:06AM 49.3340 -2.4320 275° West 424 488 33,000  Climbing FlightAware
04:07AM 49.3372 -2.5170 275° West 452 520 31,500 -2,280 Descending FlightAware UK
04:07AM 49.3400 -2.5716 275° West 454 522 31,500 4,980 Level FlightAware UK
04:07AM 49.3400 -2.5530 275° West 424 488 33,000  Climbing FlightAware
04:07AM 49.3429 -2.6248 275° West 454 522 31,500 -2,520 Descending FlightAware UK
04:08AM 49.3457 -2.6786 275° West 454 522 31,500 4,080 Level FlightAware UK
04:08AM 49.3470 -2.6820 275° West 422 486 33,000  Climbing FlightAware
04:08AM 49.3493 -2.7496 275° West 454 522 31,500 -2,100 Descending FlightAware UK
04:09AM 49.3531 -2.8217 275° West 454 522 31,500 3,600 Level FlightAware UK
04:09AM 49.3530 -2.8100 275° West 421 484 33,000  Climbing FlightAware
04:09AM 49.3560 -2.8745 275° West 450 518 31,500  Descending FlightAware UK
04:09AM 49.3590 -2.9300 274° West 420 483 33,000  Climbing FlightAware
04:09AM 49.3596 -2.9457 274° West 450 518 31,500 -4,740 Descending FlightAware UK
04:10AM 49.3623 -2.9990 274° West 450 518 31,500  Level FlightAware UK
04:10AM 49.3656 -3.0700 274° West 446 513 31,500 3,420 Level FlightAware UK
04:10AM 49.3660 -3.0620 274° West 418 481 33,000  Climbing FlightAware
04:10AM 49.3697 -3.1579 274° West 446 513 31,500  Descending FlightAware UK
04:11AM 49.3710 -3.1830 274° West 417 480 33,000  Climbing FlightAware
04:11AM 49.3742 -3.2469 274° West 446 513 31,500  Descending FlightAware UK
04:11AM 49.3770 -3.2990 274° West 416 479 33,000  Climbing FlightAware
04:11AM 49.3774 -3.3171 274° West 446 513 31,500 -4,500 Descending FlightAware UK
04:12AM 49.3800 -3.3702 274° West 446 513 31,500 2,040 Level FlightAware UK
04:12AM 49.3820 -3.4310 274° West 416 479 33,000  Climbing FlightAware
04:12AM 49.3855 -3.4934 274° West 448 516 31,500  Descending FlightAware UK
04:13AM 49.3860 -3.5210 274° West 416 479 33,000  Climbing FlightAware
04:13AM 49.3902 -3.5995 274° West 446 513 31,500 -1,920 Descending FlightAware UK
04:13AM 49.3933 -3.6701 274° West 444 511 31,500 3,300 Level FlightAware UK
04:13AM 49.3930 -3.6690 274° West 415 478 33,000  Climbing FlightAware
04:14AM 49.3964 -3.7408 274° West 446 513 31,500 -2,340 Descending FlightAware UK
04:14AM 49.3986 -3.7938 274° West 446 513 31,500 4,680 Level FlightAware UK
04:14AM 49.3980 -3.7810 274° West 415 478 33,000  Climbing FlightAware
04:14AM 49.4008 -3.8467 274° West 446 513 31,500 -2,580 Descending FlightAware UK
04:15AM 49.4032 -3.8996 274° West 446 513 31,500 3,180 Level FlightAware UK
04:15AM 49.4030 -3.9210 274° West 415 478 33,000  Climbing FlightAware
04:15AM 49.4075 -4.0055 274° West 446 513 31,500 -2,100 Descending FlightAware UK
04:16AM 49.4096 -4.0585 273° West 448 516 31,500  Level FlightAware UK
04:16AM 49.4123 -4.1291 273° West 450 518 31,500 3,420 Level FlightAware UK
04:16AM 49.4110 -4.1190 273° West 416 479 33,000  Climbing FlightAware
04:16AM 49.4144 -4.1821 273° West 452 520 31,500  Descending FlightAware UK
04:17AM 49.4160 -4.2400 273° West 415 478 33,000  Climbing FlightAware
04:17AM 49.4190 -4.3049 273° West 450 518 31,500 -2,280 Descending FlightAware UK
04:17AM 49.4209 -4.3578 273° West 442 509 31,700 4,020 Climbing FlightAware UK
04:17AM 49.4210 -4.3770 273° West 413 475 33,400 960 Climbing FlightAware
04:18AM 49.4245 -4.4457 273° West 446 513 32,200 900 Descending FlightAware UK
04:18AM 49.4250 -4.4940 273° West 417 480 34,000 780 Climbing FlightAware
04:18AM 49.4282 -4.5516 273° West 450 518 32,700 -1,080 Descending FlightAware UK
04:19AM 49.4307 -4.6226 273° West 454 522 33,300 4,500 Climbing FlightAware UK
04:19AM 49.4300 -4.6260 273° West 412 474 34,900 480 Climbing FlightAware
04:19AM 49.4331 -4.6930 273° West 448 516 33,500 -2,280 Descending FlightAware UK
04:19AM 49.4348 -4.7439 273° West 442 509 33,500 4,260 Level FlightAware UK
04:19AM 49.4330 -4.7320 273° West 403 464 35,000  Climbing FlightAware
04:20AM 49.4384 -4.8460 273° West 444 511 33,500  Descending FlightAware UK
04:20AM 49.4380 -4.8600 273° West 401 461 35,000  Climbing FlightAware
04:21AM 49.4417 -4.9483 273° West 448 516 33,500  Descending FlightAware UK
04:21AM 49.4420 -4.9770 273° West 402 463 35,000  Climbing FlightAware
04:21AM 49.4450 -5.0507 273° West 450 518 33,500  Descending FlightAware UK
04:22AM 49.4450 -5.0910 273° West 400 460 35,000  Climbing FlightAware
04:22AM 49.4470 -5.1181 273° West 448 516 33,500 -5,640 Descending FlightAware UK
04:22AM 49.4480 -5.1522 273° West 446 513 33,500 2,160 Level FlightAware UK
04:22AM 49.4490 -5.2180 273° West 400 460 35,000  Climbing FlightAware
04:22AM 49.4505 -5.2372 273° West 446 513 33,500 -3,600 Descending FlightAware UK
04:23AM 49.4526 -5.3051 273° West 446 513 33,500 2,280 Level FlightAware UK
04:23AM 49.4520 -5.3310 273° West 401 461 35,000  Climbing FlightAware
04:23AM 49.4541 -5.3561 273° West 450 518 33,500 -6,000 Descending FlightAware UK
04:23AM 49.4551 -5.3902 273° West 448 516 33,500  Level FlightAware UK
04:24AM 49.4567 -5.4414 273° West 450 518 33,500 3,840 Level FlightAware UK
04:24AM 49.4550 -5.4470 273° West 404 465 35,100 720 Climbing FlightAware
04:24AM 49.4587 -5.5099 273° West 450 518 33,800 -2,100 Descending FlightAware UK
04:24AM 49.4599 -5.5615 272° West 446 513 33,900 3,180 Climbing FlightAware UK
04:24AM 49.4590 -5.5740 272° West 401 461 35,300 -720 Climbing FlightAware
04:25AM 49.4625 -5.6641 272° West 448 516 33,500 -480 Descending FlightAware UK
04:25AM 49.4620 -5.6880 272° West 397 457 35,000  Climbing FlightAware
04:25AM 49.4647 -5.7488 272° West 446 513 33,500 -2,700 Descending FlightAware UK
04:26AM 49.4658 -5.7975 272° West 446 513 33,500 3,060 Level FlightAware UK
04:26AM 49.4650 -5.8160 272° West 392 451 35,000  Climbing FlightAware
04:26AM 49.4676 -5.8798 272° West 444 511 33,500 -2,460 Descending FlightAware UK
04:26AM 49.4678 -5.9299 270° West 444 511 33,500 4,260 Level FlightAware UK
04:26AM 49.4660 -5.9270 270° West 394 453 35,000  Climbing FlightAware
04:27AM 49.4675 -5.9802 270° West 446 513 33,500 -2,340 Descending FlightAware UK
04:27AM 49.4666 -6.0480 269° West 448 516 33,500  Level FlightAware UK
04:27AM 49.4656 -6.0991 268° West 450 518 33,500  Level FlightAware UK
04:28AM 49.4647 -6.1503 268° West 450 518 33,500  Level FlightAware UK
04:28AM 49.4637 -6.2018 268° West 454 522 33,500  Level FlightAware UK
04:28AM 49.4627 -6.2534 268° West 454 522 33,500  Level FlightAware UK
04:29AM 49.4618 -6.3053 268° West 456 525 33,500  Level FlightAware UK
04:29AM 49.4610 -6.3573 269° West 458 527 33,500  Level FlightAware UK
04:29AM 49.4595 -6.4444 269° West 460 529 33,500  Level FlightAware UK
04:30AM 49.4585 -6.5142 269° West 462 532 33,500  Level FlightAware UK
04:30AM 49.4569 -6.6013 268° West 458 527 33,500  Level FlightAware UK
04:31AM 49.4559 -6.6535 268° West 458 527 33,500 3,720 Level FlightAware UK
04:31AM 49.4550 -6.6510 268° West 410 472 35,000  Climbing FlightAware
04:31AM 49.4546 -6.7232 268° West 456 525 33,500  Descending FlightAware UK
04:31AM 49.4530 -6.7690 268° West 410 472 35,000  Climbing FlightAware
04:32AM 49.4522 -6.8450 268° West 462 532 33,500  Descending FlightAware UK
04:32AM 49.4510 -6.8680 268° West 408 470 35,000  Climbing FlightAware
04:32AM 49.4504 -6.9316 268° West 460 529 33,500 -2,760 Descending FlightAware UK
04:33AM 49.4494 -6.9828 268° West 460 529 33,500 2,520 Level FlightAware UK
04:33AM 49.4480 -7.0260 268° West 406 467 35,000  Climbing FlightAware
04:33AM 49.4468 -7.1032 268° West 458 527 33,500  Descending FlightAware UK
04:33AM 49.4460 -7.1290 268° West 404 465 35,000  Climbing FlightAware
04:34AM 49.4448 -7.1887 268° West 456 525 33,500 -2,340 Descending FlightAware UK
04:34AM 49.4432 -7.2568 268° West 456 525 33,500 3,600 Level FlightAware UK
04:34AM 49.4430 -7.2410 268° West 401 461 35,000  Climbing FlightAware
04:34AM 49.4419 -7.3077 268° West 452 520 33,500  Descending FlightAware UK
04:35AM 49.4400 -7.3730 268° West 400 460 35,000  Climbing FlightAware
04:35AM 49.4388 -7.4430 268° West 444 511 33,500 -2,400 Descending FlightAware UK
04:36AM 49.4375 -7.4935 268° West 446 513 33,500 4,500 Level FlightAware UK
04:36AM 49.4380 -7.4940 268° West 398 458 35,000  Climbing FlightAware
04:36AM 49.4359 -7.5609 268° West 444 511 33,500  Descending FlightAware UK
04:36AM 49.4340 -7.6200 268° West 398 458 35,000  Climbing FlightAware
04:37AM 49.4326 -7.6789 268° West 444 511 33,500  Descending FlightAware UK
04:37AM 49.4320 -7.7280 268° West 399 459 35,000  Climbing FlightAware
04:37AM 49.4294 -7.7970 268° West 444 511 33,500 -2,340 Descending FlightAware UK
04:38AM 49.4280 -7.8477 268° West 444 511 33,500 4,680 Level FlightAware UK
04:38AM 49.4290 -7.8250 268° West 399 459 35,000  Climbing FlightAware
04:38AM 49.4255 -7.9321 268° West 444 511 33,500  Descending FlightAware UK
04:38AM 49.4250 -7.9740 268° West 401 461 35,000  Climbing FlightAware
04:39AM 49.4222 -8.0508 268° West 446 513 33,500  Descending FlightAware UK
04:39AM 49.4220 -8.0830 268° West 402 463 35,000  Climbing FlightAware
04:39AM 49.4196 -8.1353 268° West 448 516 33,500 -2,700 Descending FlightAware UK
04:40AM 49.4179 -8.1864 267° West 452 520 33,500 2,640 Level FlightAware UK
04:40AM 49.4180 -8.2270 267° West 403 464 35,000  Climbing FlightAware
04:40AM 49.4145 -8.2890 267° West 450 518 33,500  Descending FlightAware UK
04:40AM 49.4150 -8.3110 267° West 404 465 35,000  Climbing FlightAware
04:41AM 49.4128 -8.3403 267° West 452 520 33,500 -4,500 Descending FlightAware UK
04:41AM 49.4117 -8.3745 267° West 454 522 33,500  Level FlightAware UK
04:41AM 49.4100 -8.4260 267° West 454 522 33,500 3,000 Level FlightAware UK
04:41AM 49.4110 -8.4530 267° West 404 465 35,000  Climbing FlightAware
04:42AM 49.4071 -8.5117 267° West 456 525 33,500  Descending FlightAware UK
04:42AM 49.4070 -8.5720 267° West 405 466 35,000  Climbing FlightAware
04:42AM 49.4030 -8.6318 267° West 456 525 33,500 -2,400 Descending FlightAware UK
04:43AM 49.4011 -8.6832 267° West 456 525 33,500 3,600 Level FlightAware UK
04:43AM 49.4020 -8.6960 267° West 403 464 35,000  Climbing FlightAware
04:43AM 49.3967 -8.8028 267° West 458 527 33,500  Descending FlightAware UK
04:43AM 49.3980 -8.8110 267° West 401 461 35,000  Climbing FlightAware
04:44AM 49.3935 -8.8879 267° West 458 527 33,500  Descending FlightAware UK
04:44AM 49.3940 -8.9440 267° West 400 460 35,000  Climbing FlightAware
04:44AM 49.3896 -8.9896 267° West 456 525 33,500  Descending FlightAware UK
04:45AM 49.3880 -9.0820 267° West 398 458 35,000 960 Climbing FlightAware
04:46AM 49.3840 -9.2230 268° West 398 458 35,000  Level FlightAware
04:47AM 49.3800 -9.3430 267° West 398 458 35,000  Level FlightAware
04:47AM 49.3760 -9.4390 266° West 398 458 35,000  Level FlightAware
04:48AM 49.3730 -9.5350 267° West 398 458 35,000  Level FlightAware
04:49AM 49.3700 -9.6310 267° West 398 458 35,000  Level FlightAware
04:49AM 49.3660 -9.7270 266° West 398 458 35,000  Level FlightAware
04:50AM 49.3620 -9.8470 267° West 398 458 35,000  Level FlightAware
04:51AM 49.3590 -9.9430 267° West 398 458 35,000  Level FlightAware
04:51AM 49.3560 -10.0390 267° West 398 458 35,000  Level FlightAware
04:52AM 49.3520 -10.1350 266° West 398 458 35,000  Level FlightAware
04:53AM 49.3490 -10.2310 267° West 398 458 35,000  Level FlightAware
04:54AM 49.3450 -10.3510 267° West 398 458 35,000  Level FlightAware
04:54AM 49.3420 -10.4470 267° West 398 458 35,000  Level FlightAware
04:55AM 49.3380 -10.5430 266° West 398 458 35,000  Level FlightAware
04:58AM 49.4102 -10.9936 284° West  Level Estimated
04:59AM 49.4380 -11.1707 284° West  Level Estimated
05:00AM 49.4656 -11.3480 284° West  Level Estimated
05:01AM 49.4929 -11.5254 283° West  Level Estimated
05:02AM 49.5200 -11.7031 283° West  Level Estimated
05:03AM 49.5467 -11.8810 283° West  Level Estimated
05:04AM 49.5732 -12.0590 283° West  Level Estimated
05:05AM 49.5994 -12.2373 283° West  Level Estimated
05:06AM 49.6253 -12.4157 283° West  Level Estimated
05:07AM 49.6510 -12.5943 283° West  Level Estimated
05:08AM 49.6764 -12.7732 282° West  Level Estimated
05:09AM 49.7015 -12.9522 282° West  Level Estimated
05:10AM 49.7263 -13.1314 282° West  Level Estimated
05:11AM 49.7509 -13.3107 282° West  Level Estimated
05:12AM 49.7751 -13.4903 282° West  Level Estimated
05:13AM 49.7991 -13.6700 282° West  Level Estimated
05:14AM 49.8228 -13.8499 282° West  Level Estimated
05:15AM 49.8463 -14.0300 281° West  Level Estimated
05:16AM 49.8694 -14.2103 281° West  Level Estimated
05:17AM 49.8923 -14.3907 281° West  Level Estimated
05:18AM 49.9149 -14.5713 281° West  Level Estimated
05:19AM 49.9372 -14.7521 281° West  Level Estimated
05:20AM 49.9593 -14.9330 281° West  Level Estimated
05:21AM 49.9810 -15.1141 281° West  Level Estimated
05:22AM 50.0025 -15.2954 281° West  Level Estimated
05:23AM 50.0237 -15.4768 280° West  Level Estimated
05:24AM 50.0446 -15.6584 280° West  Level Estimated
05:25AM 50.0653 -15.8401 280° West  Level Estimated
05:26AM 50.0856 -16.0220 280° West  Level Estimated
05:27AM 50.1057 -16.2040 280° West  Level Estimated
05:28AM 50.1255 -16.3862 280° West  Level Estimated
05:29AM 50.1449 -16.5686 280° West  Level Estimated
05:30AM 50.1641 -16.7511 279° West  Level Estimated
05:31AM 50.1831 -16.9337 279° West  Level Estimated
05:32AM 50.2017 -17.1165 279° West  Level Estimated
05:33AM 50.2200 -17.2994 279° West  Level Estimated
05:34AM 50.2381 -17.4825 279° West  Level Estimated
05:35AM 50.2559 -17.6657 279° West  Level Estimated
05:36AM 50.2733 -17.8491 279° West  Level Estimated
05:37AM 50.2905 -18.0325 278° West  Level Estimated
05:38AM 50.3074 -18.2161 278° West  Level Estimated
05:39AM 50.3240 -18.3999 278° West  Level Estimated
05:40AM 50.3404 -18.5837 278° West  Level Estimated
05:41AM 50.3564 -18.7677 278° West  Level Estimated
05:42AM 50.3721 -18.9518 278° West  Level Estimated
05:43AM 50.3876 -19.1361 278° West  Level Estimated
05:44AM 50.4027 -19.3204 277° West  Level Estimated
05:45AM 50.4176 -19.5049 277° West  Level Estimated
05:46AM 50.4322 -19.6895 277° West  Level Estimated
05:46AM 48.0000 -20.0000 250° West 473 544 35,000  Level ETMS Enhanced Traffic Management System
05:47AM 50.4465 -19.8742 277° West  Level Estimated
05:48AM 50.4605 -20.0590 277° West  Level Estimated
05:49AM 50.4742 -20.2439 277° West  Level Estimated
05:50AM 50.4876 -20.4289 277° West  Level Estimated
05:51AM 50.5007 -20.6140 276° West  Level Estimated
05:52AM 47.7264 -21.1041 249° West 473 544 35,000  Level FlightAware Transoceanic
05:53AM 47.6798 -21.2870 249° West 473 544 35,000  Level FlightAware Transoceanic
05:54AM 47.6329 -21.4695 249° West 473 544 35,000  Level FlightAware Transoceanic
05:55AM 47.5857 -21.6517 249° West 473 544 35,000  Level FlightAware Transoceanic
05:56AM 47.5382 -21.8336 249° West 473 544 35,000  Level FlightAware Transoceanic
05:57AM 47.4904 -22.0152 249° West 473 544 35,000  Level FlightAware Transoceanic
05:58AM 47.4424 -22.1964 249° West 473 544 35,000  Level FlightAware Transoceanic
05:59AM 47.3940 -22.3773 248° West 473 544 35,000  Level FlightAware Transoceanic
06:00AM 47.3454 -22.5579 248° West 473 544 35,000  Level FlightAware Transoceanic
06:01AM 47.2965 -22.7381 248° West 473 544 35,000  Level FlightAware Transoceanic
06:02AM 47.2473 -22.9180 248° West 473 544 35,000  Level FlightAware Transoceanic
06:03AM 47.1978 -23.0976 248° West 473 544 35,000  Level FlightAware Transoceanic
06:04AM 47.1481 -23.2768 248° West 473 544 35,000  Level FlightAware Transoceanic
06:05AM 47.0980 -23.4557 248° West 473 544 35,000  Level FlightAware Transoceanic
06:06AM 47.0477 -23.6343 247° West 473 544 35,000  Level FlightAware Transoceanic
06:07AM 46.9971 -23.8125 247° West 473 544 35,000  Level FlightAware Transoceanic
06:08AM 46.9463 -23.9904 247° West 473 544 35,000  Level FlightAware Transoceanic
06:09AM 46.8951 -24.1679 247° West 473 544 35,000  Level FlightAware Transoceanic
06:10AM 46.8437 -24.3451 247° West 473 544 35,000  Level FlightAware Transoceanic
06:11AM 46.7920 -24.5220 247° West 473 544 35,000  Level FlightAware Transoceanic
06:12AM 46.7401 -24.6985 247° West 473 544 35,000  Level FlightAware Transoceanic
06:13AM 46.6878 -24.8747 247° West 473 544 35,000  Level FlightAware Transoceanic
06:14AM 46.6353 -25.0505 246° West 473 544 35,000  Level FlightAware Transoceanic
06:15AM 46.5826 -25.2260 246° West 473 544 35,000  Level FlightAware Transoceanic
06:16AM 46.5295 -25.4012 246° West 473 544 35,000  Level FlightAware Transoceanic
06:17AM 46.4762 -25.5760 246° West 473 544 35,000  Level FlightAware Transoceanic
06:18AM 46.4226 -25.7505 246° West 473 544 35,000  Level FlightAware Transoceanic
06:19AM 46.3688 -25.9246 246° West 473 544 35,000  Level FlightAware Transoceanic
06:20AM 46.3147 -26.0984 246° West 473 544 35,000  Level FlightAware Transoceanic
06:21AM 46.2604 -26.2718 246° West 473 544 35,000  Level FlightAware Transoceanic
06:22AM 46.2057 -26.4449 245° Southwest 473 544 35,000  Level FlightAware Transoceanic
06:23AM 46.1508 -26.6177 245° Southwest 473 544 35,000  Level FlightAware Transoceanic
06:24AM 46.0957 -26.7901 245° Southwest 473 544 35,000  Level FlightAware Transoceanic
06:25AM 46.0403 -26.9621 245° Southwest 473 544 35,000  Level FlightAware Transoceanic
06:26AM 45.9846 -27.1339 245° Southwest 473 544 35,000  Level FlightAware Transoceanic
06:27AM 45.9287 -27.3052 245° Southwest 473 544 35,000  Level FlightAware Transoceanic
06:28AM 45.8726 -27.4762 245° Southwest 473 544 35,000  Level FlightAware Transoceanic
06:29AM 45.8161 -27.6469 245° Southwest 473 544 35,000  Level FlightAware Transoceanic
06:30AM 45.7594 -27.8173 244° Southwest 473 544 35,000  Level FlightAware Transoceanic
06:31AM 45.7025 -27.9872 244° Southwest 473 544 35,000  Level FlightAware Transoceanic
06:32AM 45.6453 -28.1569 244° Southwest 473 544 35,000  Level FlightAware Transoceanic
06:33AM 45.5879 -28.3262 244° Southwest 473 544 35,000  Level FlightAware Transoceanic
06:34AM 45.5302 -28.4951 244° Southwest 473 544 35,000  Level FlightAware Transoceanic
06:35AM 45.4723 -28.6637 244° Southwest 473 544 35,000  Level FlightAware Transoceanic
06:36AM 45.4141 -28.8320 244° Southwest 473 544 35,000  Level FlightAware Transoceanic
06:37AM 45.3557 -28.9999 244° Southwest 473 544 35,000  Level FlightAware Transoceanic
06:38AM 45.2970 -29.1674 243° Southwest 473 544 35,000  Level FlightAware Transoceanic
06:39AM 45.2381 -29.3346 243° Southwest 473 544 35,000  Level FlightAware Transoceanic
06:40AM 45.1789 -29.5015 243° Southwest 473 544 35,000  Level FlightAware Transoceanic
06:41AM 45.1195 -29.6680 243° Southwest 473 544 35,000  Level FlightAware Transoceanic
06:42AM 45.0599 -29.8342 243° Southwest 473 544 35,000  Level FlightAware Transoceanic
06:43AM 45.0767 -30.0002 278° West  Level Estimated
06:44AM 45.0933 -30.1664 278° West  Level Estimated
06:45AM 45.1097 -30.3327 278° West  Level Estimated
06:46AM 45.1258 -30.4991 278° West  Level Estimated
06:47AM 45.1417 -30.6655 278° West  Level Estimated
06:48AM 45.1573 -30.8321 278° West  Level Estimated
06:49AM 45.1727 -30.9987 278° West  Level Estimated
06:50AM 45.1879 -31.1654 277° West  Level Estimated
06:51AM 45.2028 -31.3323 277° West  Level Estimated
06:52AM 45.2175 -31.4991 277° West  Level Estimated
06:53AM 45.2319 -31.6661 277° West  Level Estimated
06:54AM 45.2461 -31.8332 277° West  Level Estimated
06:55AM 45.2600 -32.0004 277° West  Level Estimated
06:56AM 45.2737 -32.1676 277° West  Level Estimated
06:57AM 45.2872 -32.3349 277° West  Level Estimated
06:58AM 45.3004 -32.5023 276° West  Level Estimated
06:59AM 45.3134 -32.6698 276° West  Level Estimated
07:00AM 45.3261 -32.8373 276° West  Level Estimated
07:01AM 45.3385 -33.0050 276° West  Level Estimated
07:02AM 45.3508 -33.1726 276° West  Level Estimated
07:03AM 45.3628 -33.3404 276° West  Level Estimated
07:04AM 45.3745 -33.5083 276° West  Level Estimated
07:05AM 45.3860 -33.6762 276° West  Level Estimated
07:06AM 45.3972 -33.8441 276° West  Level Estimated
07:07AM 45.4082 -34.0122 275° West  Level Estimated
07:08AM 45.4190 -34.1803 275° West  Level Estimated
07:09AM 45.4295 -34.3484 275° West  Level Estimated
07:10AM 45.4397 -34.5167 275° West  Level Estimated
07:11AM 45.4497 -34.6850 275° West  Level Estimated
07:12AM 45.4595 -34.8533 275° West  Level Estimated
07:13AM 45.4690 -35.0217 275° West  Level Estimated
07:14AM 45.4783 -35.1902 275° West  Level Estimated
07:15AM 45.4873 -35.3587 274° West  Level Estimated
07:16AM 45.4961 -35.5273 274° West  Level Estimated
07:17AM 45.5046 -35.6959 274° West  Level Estimated
07:18AM 45.5129 -35.8646 274° West  Level Estimated
07:19AM 45.5209 -36.0333 274° West  Level Estimated
07:20AM 45.5287 -36.2021 274° West  Level Estimated
07:21AM 45.5362 -36.3709 274° West  Level Estimated
07:22AM 45.5435 -36.5397 274° West  Level Estimated
07:23AM 45.5505 -36.7086 273° West  Level Estimated
07:24AM 45.5573 -36.8776 273° West  Level Estimated
07:25AM 45.5639 -37.0466 273° West  Level Estimated
07:26AM 45.5701 -37.2156 273° West  Level Estimated
07:27AM 45.5762 -37.3846 273° West  Level Estimated
07:28AM 45.5820 -37.5537 273° West  Level Estimated
07:29AM 45.5875 -37.7229 273° West  Level Estimated
07:30AM 45.5928 -37.8920 273° West  Level Estimated
07:31AM 45.5978 -38.0612 272° West  Level Estimated
07:32AM 45.6026 -38.2304 272° West  Level Estimated
07:33AM 45.6072 -38.3997 272° West  Level Estimated
07:34AM 45.6115 -38.5690 272° West  Level Estimated
07:35AM 45.6155 -38.7383 272° West  Level Estimated
07:36AM 45.6193 -38.9076 272° West  Level Estimated
07:37AM 45.6228 -39.0770 272° West  Level Estimated
07:38AM 45.6261 -39.2463 272° West  Level Estimated
07:39AM 45.6292 -39.4157 272° West  Level Estimated
07:39AM 43.0000 -40.0000 273° West 479 551 37,000  Level New York Oceanic (ODAPS)
07:40AM 45.6320 -39.5851 271° West  Level Estimated
07:41AM 45.6345 -39.7545 271° West  Level Estimated
07:42AM 45.6368 -39.9240 271° West  Level Estimated
07:43AM 45.6388 -40.0934 271° West  Level Estimated
07:44AM 45.6406 -40.2629 271° West  Level Estimated
07:45AM 43.0484 -41.2708 273° West 479 551 37,000  Level FlightAware Transoceanic
07:46AM 43.0541 -41.4525 272° West 479 551 37,000  Level FlightAware Transoceanic
07:47AM 43.0596 -41.6342 272° West 479 551 37,000  Level FlightAware Transoceanic
07:48AM 43.0648 -41.8159 272° West 479 551 37,000  Level FlightAware Transoceanic
07:49AM 43.0697 -41.9977 272° West 479 551 37,000  Level FlightAware Transoceanic
07:50AM 43.0743 -42.1795 272° West 479 551 37,000  Level FlightAware Transoceanic
07:51AM 43.0787 -42.3614 272° West 479 551 37,000  Level FlightAware Transoceanic
07:52AM 43.0827 -42.5433 272° West 479 551 37,000  Level FlightAware Transoceanic
07:53AM 43.0864 -42.7251 272° West 479 551 37,000  Level FlightAware Transoceanic
07:54AM 43.0899 -42.9071 271° West 479 551 37,000  Level FlightAware Transoceanic
07:55AM 43.0931 -43.0890 271° West 479 551 37,000  Level FlightAware Transoceanic
07:56AM 43.0960 -43.2709 271° West 479 551 37,000  Level FlightAware Transoceanic
07:57AM 43.0985 -43.4529 271° West 479 551 37,000  Level FlightAware Transoceanic
07:58AM 43.1009 -43.6349 271° West 479 551 37,000  Level FlightAware Transoceanic
07:59AM 43.1029 -43.8169 271° West 479 551 37,000  Level FlightAware Transoceanic
08:00AM 43.1046 -43.9989 271° West 479 551 37,000  Level FlightAware Transoceanic
08:01AM 43.1060 -44.1809 271° West 479 551 37,000  Level FlightAware Transoceanic
08:01AM 43.1000 -43.6167 271° West 469 540 37,000  Level New York Oceanic (ODAPS)
08:02AM 43.1072 -44.3629 270° West 479 551 37,000  Level FlightAware Transoceanic
08:03AM 43.1081 -44.5449 270° West 479 551 37,000  Level FlightAware Transoceanic
08:04AM 43.1087 -44.7270 270° West 479 551 37,000  Level FlightAware Transoceanic
08:05AM 43.1089 -44.9090 270° West 479 551 37,000  Level FlightAware Transoceanic
08:06AM 43.1089 -45.0910 270° West 479 551 37,000  Level FlightAware Transoceanic
08:07AM 43.1087 -45.2730 270° West 479 551 37,000  Level FlightAware Transoceanic
08:08AM 43.1078 -45.3914 270° West 469 540 37,000  Level FlightAware Transoceanic
08:09AM 43.1071 -45.5688 270° West 469 540 37,000  Level FlightAware Transoceanic
08:10AM 43.1061 -45.7463 269° West 469 540 37,000  Level FlightAware Transoceanic
08:11AM 43.1049 -45.9238 269° West 469 540 37,000  Level FlightAware Transoceanic
08:12AM 43.1033 -46.1012 269° West 469 540 37,000  Level FlightAware Transoceanic
08:13AM 43.1015 -46.2787 269° West 469 540 37,000  Level FlightAware Transoceanic
08:14AM 43.0994 -46.4561 269° West 469 540 37,000  Level FlightAware Transoceanic
08:15AM 43.0970 -46.6335 269° West 469 540 37,000 840 Level FlightAware Transoceanic
08:15AM 43.1000 -46.5167 269° West 453 521 38,000  Climbing New York Oceanic (ODAPS)
08:16AM 43.0944 -46.8109 269° West 469 540 37,000 -600 Descending FlightAware Transoceanic
08:17AM 43.0914 -46.9883 269° West 469 540 37,000  Level FlightAware Transoceanic
08:18AM 43.0883 -47.1657 269° West 469 540 37,000  Level FlightAware Transoceanic
08:19AM 43.0848 -47.3431 268° West 469 540 37,000  Level FlightAware Transoceanic
08:20AM 43.0811 -47.5204 268° West 469 540 37,000 480 Level FlightAware Transoceanic
08:21AM 43.0811 -47.5628 268° West 453 521 38,000 480 Climbing FlightAware Transoceanic
08:22AM 43.0770 -47.7371 268° West 453 521 38,000  Level FlightAware Transoceanic
08:23AM 43.0727 -47.9113 268° West 453 521 38,000  Level FlightAware Transoceanic
08:24AM 43.0681 -48.0855 268° West 453 521 38,000  Level FlightAware Transoceanic
08:25AM 43.0632 -48.2598 268° West 453 521 38,000  Level FlightAware Transoceanic
08:26AM 43.0581 -48.4339 268° West 453 521 38,000  Level FlightAware Transoceanic
08:27AM 43.0527 -48.6081 268° West 453 521 38,000  Level FlightAware Transoceanic
08:28AM 43.0470 -48.7822 267° West 453 521 38,000  Level FlightAware Transoceanic
08:29AM 43.0411 -48.9563 267° West 453 521 38,000  Level FlightAware Transoceanic
08:30AM 43.0349 -49.1303 267° West 453 521 38,000  Level FlightAware Transoceanic
08:31AM 43.0285 -49.3043 267° West 453 521 38,000  Level FlightAware Transoceanic
08:32AM 43.0217 -49.4783 267° West 453 521 38,000  Level FlightAware Transoceanic
08:33AM 43.0148 -49.6522 267° West 453 521 38,000  Level FlightAware Transoceanic
08:34AM 43.0075 -49.8261 267° West 453 521 38,000  Level FlightAware Transoceanic
08:35AM 43.0000 -50.0000 258° West 453 521 38,000  Level FlightAware Transoceanic
08:35AM 43.0000 -49.9167 270° West 439 505 38,000  Level New York Oceanic (ODAPS)
08:36AM 42.9767 -50.1536 258° West 453 521 38,000  Level FlightAware Transoceanic
08:36AM 43.0000 -50.0000 258° West 435 501 38,000  Level New York Oceanic (ODAPS)
08:37AM 42.9531 -50.3072 258° West 453 521 38,000  Level FlightAware Transoceanic
08:38AM 42.9294 -50.4606 258° West 453 521 38,000  Level FlightAware Transoceanic
08:39AM 42.9054 -50.6139 258° West 453 521 38,000  Level FlightAware Transoceanic
08:40AM 42.8813 -50.7670 258° West 453 521 38,000  Level FlightAware Transoceanic
08:41AM 42.8795 -50.7786 258° West 439 505 38,000  Level FlightAware Transoceanic
08:42AM 42.8501 -50.9631 258° West 435 501 38,000  Level FlightAware Transoceanic
08:43AM 42.8243 -51.1232 258° West 435 501 38,000  Level FlightAware Transoceanic
08:44AM 42.7983 -51.2831 257° West 435 501 38,000  Level FlightAware Transoceanic
08:45AM 42.7721 -51.4429 257° West 435 501 38,000  Level FlightAware Transoceanic
08:46AM 42.7456 -51.6025 257° West 435 501 38,000  Level FlightAware Transoceanic
08:47AM 42.7190 -51.7620 257° West 435 501 38,000  Level FlightAware Transoceanic
08:48AM 42.6921 -51.9214 257° West 435 501 38,000  Level FlightAware Transoceanic
08:49AM 42.6650 -52.0807 257° West 435 501 38,000  Level FlightAware Transoceanic
08:50AM 42.6377 -52.2398 257° West 435 501 38,000  Level FlightAware Transoceanic
08:51AM 42.6101 -52.3987 257° West 435 501 38,000  Level FlightAware Transoceanic
08:52AM 42.5824 -52.5575 257° West 435 501 38,000  Level FlightAware Transoceanic
08:53AM 42.5544 -52.7162 256° West 435 501 38,000  Level FlightAware Transoceanic
08:54AM 42.5262 -52.8747 256° West 435 501 38,000  Level FlightAware Transoceanic
08:55AM 42.4977 -53.0331 256° West 435 501 38,000  Level FlightAware Transoceanic
08:55AM 42.4833 -53.1500 256° West 432 497 38,000  Level New York Oceanic (ODAPS)
08:56AM 42.4691 -53.1914 256° West 435 501 38,000  Level FlightAware Transoceanic
08:57AM 42.4403 -53.3495 256° West 435 501 38,000  Level FlightAware Transoceanic
08:58AM 42.4112 -53.5074 256° West 435 501 38,000  Level FlightAware Transoceanic
08:59AM 42.3819 -53.6652 256° West 435 501 38,000  Level FlightAware Transoceanic
09:00AM 42.3524 -53.8229 256° West 435 501 38,000  Level FlightAware Transoceanic
09:01AM 42.3355 -53.9440 256° West 432 497 38,000  Level FlightAware Transoceanic
09:02AM 42.3053 -54.1023 255° West 432 497 38,000  Level FlightAware Transoceanic
09:03AM 42.2749 -54.2605 255° West 432 497 38,000  Level FlightAware Transoceanic
09:04AM 42.2442 -54.4186 255° West 432 497 38,000  Level FlightAware Transoceanic
09:05AM 42.2134 -54.5765 255° West 432 497 38,000  Level FlightAware Transoceanic
09:06AM 42.1823 -54.7342 255° West 432 497 38,000  Level FlightAware Transoceanic
09:07AM 42.1510 -54.8918 255° West 432 497 38,000  Level FlightAware Transoceanic
09:08AM 42.1195 -55.0492 255° West 432 497 38,000  Level FlightAware Transoceanic
09:09AM 42.0877 -55.2064 255° West 432 497 38,000  Level FlightAware Transoceanic
09:10AM 42.0558 -55.3635 255° West 432 497 38,000  Level FlightAware Transoceanic
09:11AM 42.0236 -55.5205 255° West 432 497 38,000  Level FlightAware Transoceanic
09:12AM 41.9912 -55.6773 254° West 432 497 38,000  Level FlightAware Transoceanic
09:13AM 41.9587 -55.8339 254° West 432 497 38,000  Level FlightAware Transoceanic
09:14AM 41.9259 -55.9904 254° West 432 497 38,000  Level FlightAware Transoceanic
09:15AM 41.8928 -56.1467 254° West 432 497 38,000  Level FlightAware Transoceanic
09:16AM 41.8596 -56.3028 254° West 432 497 38,000  Level FlightAware Transoceanic
09:16AM 41.8667 -56.2500 254° West 410 472 38,000  Level New York Oceanic (ODAPS)
09:17AM 41.8262 -56.4588 254° West 432 497 38,000  Level FlightAware Transoceanic
09:18AM 41.7925 -56.6146 254° West 432 497 38,000  Level FlightAware Transoceanic
09:19AM 41.7587 -56.7703 254° West 432 497 38,000  Level FlightAware Transoceanic
09:20AM 41.7246 -56.9258 254° West 432 497 38,000  Level FlightAware Transoceanic
09:21AM 41.6903 -57.0811 253° West 432 497 38,000  Level FlightAware Transoceanic
09:22AM 41.6775 -57.1242 254° West 410 472 38,000  Level FlightAware Transoceanic
09:23AM 41.6454 -57.2694 253° West 410 472 38,000  Level FlightAware Transoceanic
09:24AM 41.6130 -57.4145 253° West 410 472 38,000  Level FlightAware Transoceanic
09:25AM 41.5805 -57.5594 253° West 410 472 38,000  Level FlightAware Transoceanic
09:26AM 41.5478 -57.7041 253° West 410 472 38,000  Level FlightAware Transoceanic
09:27AM 41.5149 -57.8487 253° West 410 472 38,000  Level FlightAware Transoceanic
09:28AM 41.4818 -57.9932 253° West 410 472 38,000  Level FlightAware Transoceanic
09:29AM 41.4486 -58.1375 253° West 410 472 38,000  Level FlightAware Transoceanic
09:30AM 41.4151 -58.2817 253° West 410 472 38,000  Level FlightAware Transoceanic
09:31AM 41.3815 -58.4257 253° West 410 472 38,000  Level FlightAware Transoceanic
09:32AM 41.3477 -58.5696 253° West 410 472 38,000  Level FlightAware Transoceanic
09:32AM 41.3500 -58.5667 252° West 396 456 38,000  Level New York Oceanic (ODAPS)
09:33AM 41.3137 -58.7133 252° West 410 472 38,000  Level FlightAware Transoceanic
09:34AM 41.2796 -58.8569 252° West 410 472 38,000  Level FlightAware Transoceanic
09:35AM 41.2453 -59.0003 252° West 410 472 38,000  Level FlightAware Transoceanic
09:36AM 41.2108 -59.1436 252° West 410 472 38,000  Level FlightAware Transoceanic
09:37AM 41.1761 -59.2867 252° West 410 472 38,000  Level FlightAware Transoceanic
09:37AM 41.2167 -59.1167 252° West 396 456 38,000  Level New York Oceanic (ODAPS)
09:38AM 41.1421 -59.4285 252° West 396 456 38,000  Level FlightAware Transoceanic
09:39AM 41.1069 -59.5716 252° West 396 456 38,000  Level FlightAware Transoceanic
09:40AM 41.0714 -59.7146 252° West 396 456 38,000  Level FlightAware Transoceanic
09:41AM 41.0358 -59.8574 252° West 396 456 38,000  Level FlightAware Transoceanic
09:42AM 41.0000 -60.0000 263° West 396 456 38,000  Level FlightAware Transoceanic
09:42AM 41.0000 -60.0000 263° West 398 458 38,000  Level New York Oceanic (ODAPS)
09:43AM 40.9870 -60.1362 263° West 396 456 38,000  Level FlightAware Transoceanic
09:44AM 40.9739 -60.2724 263° West 396 456 38,000  Level FlightAware Transoceanic
09:45AM 40.9606 -60.4086 263° West 396 456 38,000  Level FlightAware Transoceanic
09:46AM 40.9472 -60.5446 263° West 396 456 38,000  Level FlightAware Transoceanic
09:47AM 40.9336 -60.6806 262° West 396 456 38,000  Level FlightAware Transoceanic
09:48AM 40.9147 -60.8665 262° West 398 458 38,000  Level FlightAware Transoceanic
09:49AM 40.8999 -61.0107 262° West 398 458 38,000  Level FlightAware Transoceanic
09:50AM 40.8848 -61.1549 262° West 398 458 38,000  Level FlightAware Transoceanic
09:51AM 40.8696 -61.2990 262° West 398 458 38,000  Level FlightAware Transoceanic
09:52AM 40.8543 -61.4430 262° West 398 458 38,000  Level FlightAware Transoceanic
09:53AM 40.8387 -61.5869 262° West 398 458 38,000  Level FlightAware Transoceanic
09:53AM 40.8333 -61.5833 262° West 390 449 38,000  Level New York Oceanic (ODAPS)
09:54AM 40.8229 -61.7308 262° West 398 458 38,000  Level FlightAware Transoceanic
09:55AM 40.8070 -61.8746 262° West 398 458 38,000  Level FlightAware Transoceanic
09:56AM 40.7909 -62.0183 262° West 398 458 38,000  Level FlightAware Transoceanic
09:56AM 40.8000 -61.9833 261° West 384 442 38,000  Level New York Oceanic (ODAPS)
09:57AM 40.7747 -62.1620 261° West 398 458 38,000  Level FlightAware Transoceanic
09:58AM 40.7582 -62.3055 261° West 398 458 38,000  Level FlightAware Transoceanic
09:59AM 40.7416 -62.4491 261° West 398 458 38,000  Level FlightAware Transoceanic
10:00AM 40.7234 -62.5638 261° West 390 449 38,000  Level FlightAware Transoceanic
10:01AM 40.7070 -62.7036 261° West 390 449 38,000  Level FlightAware Transoceanic
10:02AM 40.6905 -62.8433 261° West 390 449 38,000  Level FlightAware Transoceanic
10:03AM 40.6874 -62.9400 261° West 384 442 38,000  Level FlightAware Transoceanic
10:04AM 40.6707 -63.0764 261° West 384 442 38,000  Level FlightAware Transoceanic
10:05AM 40.6538 -63.2128 261° West 384 442 38,000  Level FlightAware Transoceanic
10:06AM 40.6368 -63.3490 261° West 384 442 38,000  Level FlightAware Transoceanic
10:07AM 40.6196 -63.4852 261° West 384 442 38,000  Level FlightAware Transoceanic
10:08AM 40.6022 -63.6214 260° West 384 442 38,000  Level FlightAware Transoceanic
10:09AM 40.5847 -63.7574 260° West 384 442 38,000  Level FlightAware Transoceanic
10:10AM 40.5670 -63.8934 260° West 384 442 38,000  Level FlightAware Transoceanic
10:11AM 40.5492 -64.0293 260° West 384 442 38,000  Level FlightAware Transoceanic
10:12AM 40.5312 -64.1652 260° West 384 442 38,000  Level FlightAware Transoceanic
10:13AM 40.5130 -64.3009 260° West 384 442 38,000  Level FlightAware Transoceanic
10:14AM 40.4947 -64.4366 260° West 384 442 38,000  Level FlightAware Transoceanic
10:15AM 40.4762 -64.5722 260° West 384 442 38,000  Level FlightAware Transoceanic
10:16AM 40.4576 -64.7078 260° West 384 442 38,000  Level FlightAware Transoceanic
10:16AM 40.4500 -64.7000 260° West 358 412 38,000  Level New York Oceanic (ODAPS)
10:17AM 40.4388 -64.8432 260° West 384 442 38,000  Level FlightAware Transoceanic
10:18AM 40.4198 -64.9786 260° West 384 442 38,000  Level FlightAware Transoceanic
10:19AM 40.4007 -65.1139 259° West 384 442 38,000  Level FlightAware Transoceanic
10:20AM 40.3814 -65.2492 259° West 384 442 38,000  Level FlightAware Transoceanic
10:21AM 40.3620 -65.3843 259° West 384 442 38,000  Level FlightAware Transoceanic
10:22AM 40.3424 -65.5194 259° West 384 442 38,000  Level FlightAware Transoceanic
10:23AM 40.3440 -65.4692 259° West 358 412 38,000  Level FlightAware Transoceanic
10:24AM 40.3258 -65.5971 259° West 358 412 38,000  Level FlightAware Transoceanic
10:25AM 40.3075 -65.7250 259° West 358 412 38,000  Level FlightAware Transoceanic
10:26AM 40.2890 -65.8528 259° West 358 412 38,000  Level FlightAware Transoceanic
10:27AM 40.2704 -65.9806 259° West 358 412 38,000  Level FlightAware Transoceanic
10:28AM 40.2517 -66.1083 259° West 358 412 38,000  Level FlightAware Transoceanic
10:29AM 40.2328 -66.2359 259° West 358 412 38,000  Level FlightAware Transoceanic
10:30AM 40.2138 -66.3634 259° West 358 412 38,000  Level FlightAware Transoceanic
10:31AM 40.1947 -66.4909 259° West 358 412 38,000  Level FlightAware Transoceanic
10:31AM 40.1819 -66.5689 257° West 452 520 38,000  Level New York Center
10:32AM 40.1754 -66.6183 259° West 358 412 38,000  Level FlightAware Transoceanic
10:32AM 40.1636 -66.7003 260° West 405 466 38,000  Level New York Center
10:33AM 40.1559 -66.7456 259° West 358 412 38,000  Level FlightAware Transoceanic
10:33AM 40.1467 -66.8208 260° West 377 434 38,000  Level New York Center
10:34AM 40.1364 -66.8728 259° West 358 412 38,000  Level FlightAware Transoceanic
10:34AM 40.1256 -66.9414 257° West 357 411 38,000  Level New York Center
10:35AM 40.1167 -67.0000 257° West 358 412 38,000  Level FlightAware Transoceanic
10:35AM 40.1061 -67.0564 258° West 343 395 38,000  Level New York Center
10:36AM 40.0850 -67.1769 257° West 337 388 38,000  Level New York Center
10:37AM 40.0653 -67.2917 257° West 332 382 38,000  Level New York Center
10:38AM 40.0417 -67.4150 256° West 337 388 38,000  Level New York Center
10:39AM 40.0239 -67.5297 259° West 337 388 38,000  Level New York Center
10:40AM 40.0042 -67.6497 258° West 337 388 38,000  Level New York Center
10:41AM 39.9906 -67.7694 262° West 337 388 38,000  Level New York Center
10:42AM 39.9747 -67.8947 261° West 342 394 38,000  Level New York Center
10:43AM 39.9608 -68.0117 261° West 342 394 38,000  Level New York Center
10:44AM 39.9428 -68.1344 259° West 342 394 38,000  Level New York Center
10:45AM 39.9264 -68.2514 260° West 342 394 38,000  Level New York Center
10:46AM 39.9103 -68.3736 260° West 337 388 38,000  Level New York Center
10:47AM 39.8939 -68.5014 261° West 343 395 38,000  Level New York Center
10:48AM 39.8772 -68.6156 259° West 343 395 38,000  Level New York Center
10:49AM 39.8586 -68.7431 259° West 343 395 38,000  Level New York Center
10:50AM 39.8439 -68.8625 261° West 343 395 38,000 180 Level New York Center
10:51AM 39.8247 -68.9900 259° West 343 395 38,400 480 Climbing New York Center
10:52AM 39.8078 -69.1147 260° West 357 411 39,000 240 Climbing New York Center
10:53AM 39.7886 -69.2475 259° West 367 422 39,000  Level New York Center
10:54AM 39.7694 -69.3803 259° West 372 428 39,000  Level New York Center
10:55AM 39.7519 -69.5103 260° West 372 428 39,000  Level New York Center
10:56AM 39.7325 -69.6372 259° West 374 430 39,000  Level New York Center
10:57AM 39.7128 -69.7644 259° West 369 425 39,000  Level New York Center
10:58AM 39.6950 -69.9022 261° West 375 432 39,000  Level New York Center
10:59AM 39.6747 -70.0106 256° West 368 423 39,000  Level New York Center
11:00AM 39.6589 -70.1428 261° West 368 423 39,000 -360 Level New York Center
11:01AM 39.6386 -70.2750 259° West 373 429 38,300 -960 Descending New York Center
11:02AM 39.6181 -70.4017 258° West 373 429 37,200 -1,020 Descending New York Center
11:03AM 39.5956 -70.5339 258° West 373 429 36,300 -960 Descending New York Center
11:04AM 39.5769 -70.6578 259° West 366 421 35,300 -1,320 Descending New York Center
11:05AM 39.5603 -70.7736 259° West 353 406 33,700 -1,440 Descending New York Center
11:06AM 39.5392 -70.9056 258° West 359 413 32,500 -1,140 Descending New York Center
11:07AM 39.5203 -71.0319 259° West 359 413 31,500 -1,080 Descending New York Center
11:08AM 39.4989 -71.1583 258° West 365 420 30,400 -720 Descending New York Center
11:09AM 39.4775 -71.2844 258° West 365 420 30,100 -300 Descending New York Center
11:10AM 39.4644 -71.4133 263° West 365 420 29,800 -420 Descending New York Center
11:11AM 39.4906 -71.5428 285° West 358 412 29,300 -960 Descending New York Center
11:12AM 39.5231 -71.6669 289° West 368 423 28,000 -1,260 Descending New York Center
11:13AM 39.5575 -71.7967 289° West 373 429 26,800 -1,080 Descending New York Center
11:14AM 39.5917 -71.9239 289° West 380 437 25,900 -1,560 Descending New York Center
11:15AM 39.6214 -72.0511 287° West 380 437 23,800 -2,220 Descending New York Center
11:16AM 39.6536 -72.1675 290° West 366 421 21,600 -2,160 Descending New York Center
11:17AM 39.6811 -72.2842 287° West 355 409 19,500 -2,040 Descending New York Center
11:18AM 39.7131 -72.4008 290° West 348 400 17,600 -2,220 Descending New York Center
11:19AM 39.7425 -72.5150 289° West 343 395 15,100 -2,400 Descending New York Center
11:20AM 39.7742 -72.6317 289° West 343 395 12,900 -2,160 Descending New York Center
11:21AM 39.7994 -72.7433 286° West 343 395 10,800 -1,440 Descending New York Center
11:22AM 39.8206 -72.8492 285° West 321 369 10,000 -420 Descending New York Center
11:23AM 39.8247 -72.9575 273° West 315 362 10,000  Level New York Center
11:24AM 39.8244 -73.0819 270° West 310 357 10,000 -480 Level New York Center
11:30AM 39.9460 -73.6430 270° West 294 338 7,200 -540 Descending FlightAware
11:30AM 39.9620 -73.6930 293° West 295 339 7,000 -300 Descending FlightAware
11:30AM 39.9680 -73.7090 296° West 297 342 7,000 -300 Level FlightAware
11:31AM 39.9840 -73.7600 292° West 298 343 6,800 -420 Descending FlightAware
11:31AM 39.9920 -73.7850 293° West 297 342 6,700 -300 Descending FlightAware
11:31AM 40.0091 -73.8367 293° West 278 320 6,600 -300 Descending FlightAware ADS-B
11:32AM 40.0166 -73.8602 293° West 262 302 6,500 -420 Descending FlightAware ADS-B
11:32AM 40.0240 -73.8827 293° West 252 290 6,400 -780 Descending FlightAware ADS-B
11:32AM 40.0312 -73.9054 293° West 248 285 6,100 -1,320 Descending FlightAware ADS-B
11:33AM 40.0379 -73.9261 293° West 248 285 5,700 -1,200 Descending FlightAware ADS-B
11:33AM 40.0447 -73.9476 292° West 248 285 5,500 -420 Descending FlightAware ADS-B
11:33AM 40.0580 -73.9890 293° West 249 287 5,400 -180 Descending FlightAware
11:34AM 40.0652 -74.0118 292° West 250 288 5,400  Level FlightAware ADS-B
11:34AM 40.0719 -74.0334 292° West 252 290 5,400  Level FlightAware ADS-B
11:34AM 40.0788 -74.0549 293° West 252 290 5,400 180 Level FlightAware ADS-B
11:34AM 40.0857 -74.0762 293° West 252 290 5,500  Climbing FlightAware ADS-B
11:35AM 40.0924 -74.0977 292° West 251 289 5,400 -240 Descending FlightAware ADS-B
11:35AM 40.0999 -74.1217 292° West 251 289 5,400  Level FlightAware ADS-B
11:35AM 40.1080 -74.1469 293° West 253 291 5,400  Level FlightAware ADS-B
11:35AM 40.1154 -74.1699 293° West 255 293 5,400  Level FlightAware ADS-B
11:36AM 40.1219 -74.1909 292° West 254 292 5,400  Level FlightAware ADS-B
11:36AM 40.1291 -74.2134 293° West 254 292 5,400  Level FlightAware ADS-B
11:36AM 40.1363 -74.2364 292° West 253 291 5,400  Level FlightAware ADS-B
11:36AM 40.1435 -74.2592 292° West 253 291 5,400  Level FlightAware ADS-B
11:37AM 40.1502 -74.2803 293° West 255 293 5,400  Level FlightAware ADS-B
11:37AM 40.1573 -74.3022 293° West 255 293 5,400  Level FlightAware ADS-B
11:37AM 40.1696 -74.3419 292° West 251 289 5,400  Level FlightAware ADS-B
11:38AM 40.1786 -74.3702 293° West 255 293 5,400  Level FlightAware ADS-B
11:38AM 40.1854 -74.3919 292° West 254 292 5,400  Level FlightAware ADS-B
11:38AM 40.1921 -74.4131 292° West 247 284 5,400  Level FlightAware ADS-B
11:39AM 40.1988 -74.4346 292° West 233 268 5,400  Level FlightAware ADS-B
11:39AM 40.2012 -74.4415 294° West 228 262 5,400  Level FlightAware ADS-B
11:39AM 40.2052 -74.4495 303° West 220 253 5,400  Level FlightAware ADS-B
11:39AM 40.2088 -74.4542 315° West 213 245 5,400  Level FlightAware ADS-B
11:39AM 40.2113 -74.4566 324° Northwest 209 241 5,400  Level FlightAware ADS-B
11:39AM 40.2208 -74.4630 333° Northwest 197 227 5,400  Level FlightAware ADS-B
11:39AM 40.2335 -74.4697 338° Northwest 191 220 5,400  Level FlightAware ADS-B
11:40AM 40.2422 -74.4739 340° North 186 214 5,400  Level FlightAware ADS-B
11:40AM 40.2455 -74.4748 348° North 185 213 5,400  Level FlightAware ADS-B
11:40AM 40.2480 -74.4748 360° North 184 212 5,400  Level FlightAware ADS-B
11:40AM 40.2512 -74.4741 North 185 213 5,400  Level FlightAware ADS-B
11:40AM 40.2541 -74.4727 20° North 185 213 5,400  Level FlightAware ADS-B
11:40AM 40.2568 -74.4702 35° Northeast 187 215 5,400  Level FlightAware ADS-B
11:40AM 40.2587 -74.4678 44° Northeast 185 213 5,400  Level FlightAware ADS-B
11:40AM 40.2611 -74.4628 58° Northeast 195 224 5,400  Level FlightAware ADS-B
11:40AM 40.2620 -74.4592 72° East 199 229 5,400  Level FlightAware ADS-B
11:40AM 40.2626 -74.4549 80° East 204 235 5,400  Level FlightAware ADS-B
11:40AM 40.2627 -74.4495 89° East 206 237 5,400 600 Level FlightAware ADS-B
11:40AM 40.2625 -74.4423 92° East 207 238 5,500 600 Climbing FlightAware ADS-B
11:40AM 40.2627 -74.4376 87° East 207 238 5,500  Level FlightAware ADS-B
11:40AM 40.2635 -74.4329 77° East 205 236 5,500 -720 Level FlightAware ADS-B
11:40AM 40.2657 -74.4266 65° Northeast 199 229 5,400 -600 Descending FlightAware ADS-B
11:41AM 40.2683 -74.4224 51° Northeast 207 238 5,400  Level FlightAware ADS-B
11:41AM 40.2694 -74.4213 37° Northeast 193 222 5,400  Level FlightAware ADS-B
11:41AM 40.2718 -74.4190 36° Northeast 190 219 5,400  Level FlightAware ADS-B
11:41AM 40.2726 -74.4185 25° Northeast 190 219 5,400  Level FlightAware ADS-B
11:41AM 40.2747 -74.4173 24° Northeast 189 217 5,400  Level FlightAware ADS-B
11:41AM 40.2779 -74.4158 20° North 189 217 5,400  Level FlightAware ADS-B
11:41AM 40.2814 -74.4144 17° North 191 220 5,400  Level FlightAware ADS-B
11:41AM 40.2841 -74.4131 20° North 193 222 5,400  Level FlightAware ADS-B
11:41AM 40.2877 -74.4114 20° North 194 223 5,400  Level FlightAware ADS-B
11:41AM 40.2918 -74.4090 24° Northeast 194 223 5,400  Level FlightAware ADS-B
11:41AM 40.2956 -74.4070 22° Northeast 194 223 5,400  Level FlightAware ADS-B
11:41AM 40.3030 -74.4027 24° Northeast 193 222 5,400  Level FlightAware ADS-B
11:41AM 40.3033 -74.4025 27° Northeast 193 222 5,400  Level FlightAware ADS-B
11:41AM 40.3071 -74.3998 28° Northeast 193 222 5,400  Level FlightAware ADS-B
11:41AM 40.3080 -74.3993 23° Northeast 194 223 5,400  Level FlightAware ADS-B
11:41AM 40.3118 -74.3962 32° Northeast 194 223 5,400  Level FlightAware ADS-B
11:42AM 40.3167 -74.3919 34° Northeast 196 226 5,400  Level FlightAware ADS-B
11:42AM 40.3186 -74.3902 34° Northeast 196 226 5,400  Level FlightAware ADS-B
11:42AM 40.3224 -74.3878 26° Northeast 196 226 5,400  Level FlightAware ADS-B
11:42AM 40.3229 -74.3874 31° Northeast 196 226 5,400  Level FlightAware ADS-B
11:42AM 40.3248 -74.3865 20° North 195 224 5,400  Level FlightAware ADS-B
11:42AM 40.3288 -74.3852 14° North 193 222 5,400  Level FlightAware ADS-B
11:42AM 40.3317 -74.3842 15° North 192 221 5,400  Level FlightAware ADS-B
11:42AM 40.3358 -74.3829 14° North 192 221 5,400  Level FlightAware ADS-B
11:42AM 40.3385 -74.3821 13° North 193 222 5,400  Level FlightAware ADS-B
11:42AM 40.3459 -74.3792 17° North 192 221 5,400 -360 Level FlightAware ADS-B
11:42AM 40.3528 -74.3763 18° North 191 220 5,300 -600 Descending FlightAware ADS-B
11:42AM 40.3552 -74.3751 21° North 191 220 5,300 -720 Level FlightAware ADS-B
11:43AM 40.3667 -74.3685 24° Northeast 188 216 5,100 -1,080 Descending FlightAware ADS-B
11:43AM 40.3735 -74.3641 26° Northeast 189 217 4,900 -1,260 Descending FlightAware ADS-B
11:43AM 40.3856 -74.3560 27° Northeast 186 214 4,600 -960 Descending FlightAware ADS-B
11:43AM 40.3880 -74.3543 28° Northeast 187 215 4,600 -780 Level FlightAware ADS-B
11:43AM 40.3977 -74.3481 26° Northeast 187 215 4,400 -1,080 Descending FlightAware ADS-B
11:43AM 40.4013 -74.3459 25° Northeast 187 215 4,300 -1,200 Descending FlightAware ADS-B
11:43AM 40.4094 -74.3407 26° Northeast 187 215 4,100 -1,200 Descending FlightAware ADS-B
11:44AM 40.4213 -74.3335 25° Northeast 184 212 3,800 -1,140 Descending FlightAware ADS-B
11:44AM 40.4216 -74.3334 14° North 187 215 3,800 -780 Level FlightAware ADS-B
11:44AM 40.4504 -74.3153 26° Northeast 181 208 3,300 -900 Descending FlightAware ADS-B
11:45AM 40.4700 -74.3040 24° Northeast 163 188 2,800 -1,020 Descending FlightAware
11:45AM 40.4795 -74.2975 27° Northeast 181 208 2,600 -600 Descending FlightAware ADS-B
11:46AM 40.4989 -74.2851 26° Northeast 161 185 2,400 -180 Descending FlightAware ADS-B
11:46AM 40.5309 -74.2654 25° Northeast 165 190 2,400  Level FlightAware ADS-B
11:47AM 40.5591 -74.2477 25° Northeast 165 190 2,400 -120 Level FlightAware ADS-B
11:47AM 40.5711 -74.2401 26° Northeast 170 196 2,300 -840 Descending FlightAware ADS-B
11:48AM 40.6085 -74.2168 25° Northeast 178 205 1,500 -900 Descending FlightAware ADS-B
11:49AM 40.6350 -74.2000 26° Northeast 157 181 900 -960 Descending FlightAware
11:49AM 40.6513 -74.1900 25° Northeast 143 165 500 -960 Descending FlightAware ADS-B
11:50AM 40.6695 -74.1787 25° Northeast 143 165 100 -780 Descending FlightAware ADS-B